AAL308 KMIA-TXKF
Flight info
| Callsign | AAL308 |
|---|---|
| Flight time | 2h 9m |
| Altitude | 37000 |
| Route | FOLZZ3 ZFP DCT BAAGR DCT CNNOR/M079F370 M328 ANTIG POPOP1 |
| Aircraft | A319/M-SDE3FGHIRWY/LB1 |
Departure
| Time | 2026-05-07 15:27 |
|---|---|
| Airport | Miami International Airport (KMIA) |
Arrival
| Time | 2026-05-07 17:36 |
|---|---|
| Airport | L.F. Wade International Airport (TXKF) |
| Time | Latitude | Longitude | Altitude | Speed | Heading |
|---|---|---|---|---|---|
| 2026-05-07 15:04 | 25.79627 | -80.28024 | 20 ft | 0 kts | 29° |
| 2026-05-07 15:10 | 25.79622 | -80.28028 | 20 ft | 2 kts | 29° |
| 2026-05-07 15:11 | 25.79610 | -80.28035 | 21 ft | 2 kts | 39° |
| 2026-05-07 15:11 | 25.79600 | -80.28044 | 18 ft | 2 kts | 37° |
| 2026-05-07 15:11 | 25.79589 | -80.28051 | 20 ft | 2 kts | 351° |
| 2026-05-07 15:11 | 25.79590 | -80.28053 | 19 ft | 1 kts | 333° |
| 2026-05-07 15:12 | 25.79594 | -80.28061 | 19 ft | 1 kts | 297° |
| 2026-05-07 15:12 | 25.79598 | -80.28073 | 19 ft | 2 kts | 295° |
| 2026-05-07 15:12 | 25.79602 | -80.28082 | 19 ft | 0 kts | 295° |
| 2026-05-07 15:15 | 25.79604 | -80.28086 | 19 ft | 2 kts | 295° |
| 2026-05-07 15:15 | 25.79613 | -80.28109 | 20 ft | 5 kts | 295° |
| 2026-05-07 15:15 | 25.79624 | -80.28134 | 20 ft | 2 kts | 295° |
| 2026-05-07 15:15 | 25.79632 | -80.28159 | 20 ft | 6 kts | 286° |
| 2026-05-07 15:16 | 25.79653 | -80.28221 | 19 ft | 11 kts | 296° |
| 2026-05-07 15:16 | 25.79674 | -80.28309 | 18 ft | 13 kts | 269° |
| 2026-05-07 15:16 | 25.79670 | -80.28413 | 18 ft | 14 kts | 267° |
| 2026-05-07 15:16 | 25.79663 | -80.28527 | 19 ft | 12 kts | 260° |
| 2026-05-07 15:17 | 25.79651 | -80.28616 | 19 ft | 12 kts | 267° |
| 2026-05-07 15:17 | 25.79642 | -80.28713 | 20 ft | 13 kts | 263° |
| 2026-05-07 15:17 | 25.79655 | -80.28799 | 21 ft | 11 kts | 313° |
| 2026-05-07 15:17 | 25.79734 | -80.28814 | 22 ft | 13 kts | 357° |
| 2026-05-07 15:18 | 25.79795 | -80.28817 | 20 ft | 14 kts | 358° |
| 2026-05-07 15:18 | 25.79926 | -80.28822 | 22 ft | 15 kts | 357° |
| 2026-05-07 15:18 | 25.79983 | -80.28827 | 22 ft | 10 kts | 348° |
| 2026-05-07 15:18 | 25.80012 | -80.28898 | 21 ft | 12 kts | 267° |
| 2026-05-07 15:19 | 25.80007 | -80.29005 | 20 ft | 15 kts | 267° |
| 2026-05-07 15:19 | 25.80002 | -80.29124 | 21 ft | 16 kts | 267° |
| 2026-05-07 15:19 | 25.79997 | -80.29252 | 21 ft | 18 kts | 267° |
| 2026-05-07 15:19 | 25.79992 | -80.29405 | 17 ft | 22 kts | 268° |
| 2026-05-07 15:20 | 25.79982 | -80.29646 | 14 ft | 17 kts | 266° |
| 2026-05-07 15:20 | 25.79979 | -80.29695 | 14 ft | 7 kts | 266° |
| 2026-05-07 15:20 | 25.79963 | -80.29748 | 16 ft | 7 kts | 225° |
| 2026-05-07 15:20 | 25.79917 | -80.29766 | 13 ft | 5 kts | 213° |
| 2026-05-07 15:21 | 25.79892 | -80.29814 | 13 ft | 9 kts | 259° |
| 2026-05-07 15:21 | 25.79891 | -80.29892 | 13 ft | 11 kts | 271° |
| 2026-05-07 15:21 | 25.79917 | -80.29958 | 12 ft | 7 kts | 300° |
| 2026-05-07 15:21 | 25.79920 | -80.29965 | 12 ft | 0 kts | 299° |
| 2026-05-07 15:24 | 25.79924 | -80.29972 | 14 ft | 3 kts | 299° |
| 2026-05-07 15:24 | 25.79946 | -80.30016 | 12 ft | 10 kts | 300° |
| 2026-05-07 15:25 | 25.79987 | -80.30095 | 14 ft | 12 kts | 301° |
| 2026-05-07 15:25 | 25.80054 | -80.30127 | 15 ft | 10 kts | 13° |
| 2026-05-07 15:25 | 25.80074 | -80.30094 | 14 ft | 0 kts | 85° |
| 2026-05-07 15:26 | 25.80076 | -80.30060 | 13 ft | 22 kts | 88° |
| 2026-05-07 15:26 | 25.80091 | -80.29656 | 14 ft | 81 kts | 87° |
| 2026-05-07 15:26 | 25.80126 | -80.28826 | 21 ft | 134 kts | 87° |
| 2026-05-07 15:26 | 25.80173 | -80.27607 | 85 ft | 174 kts | 89° |
| 2026-05-07 15:27 | 25.80199 | -80.26278 | 716 ft | 172 kts | 95° |
| 2026-05-07 15:27 | 25.79892 | -80.25020 | 1307 ft | 171 kts | 116° |
| 2026-05-07 15:27 | 25.79381 | -80.23819 | 1895 ft | 176 kts | 117° |
| 2026-05-07 15:27 | 25.78806 | -80.22519 | 2165 ft | 198 kts | 118° |
| 2026-05-07 15:28 | 25.78160 | -80.21073 | 2441 ft | 219 kts | 118° |
| 2026-05-07 15:28 | 25.77448 | -80.19486 | 2808 ft | 239 kts | 118° |
| 2026-05-07 15:28 | 25.76689 | -80.17800 | 3380 ft | 257 kts | 118° |
| 2026-05-07 15:28 | 25.75836 | -80.16006 | 4104 ft | 267 kts | 119° |
| 2026-05-07 15:29 | 25.74952 | -80.14177 | 4966 ft | 271 kts | 116° |
| 2026-05-07 15:29 | 25.74474 | -80.12145 | 5737 ft | 277 kts | 93° |
| 2026-05-07 15:29 | 25.74730 | -80.10025 | 6513 ft | 281 kts | 70° |
| 2026-05-07 15:29 | 25.75718 | -80.08155 | 7239 ft | 284 kts | 49° |
| 2026-05-07 15:30 | 25.77032 | -80.06506 | 8047 ft | 285 kts | 49° |
| 2026-05-07 15:30 | 25.78357 | -80.04846 | 8805 ft | 288 kts | 49° |
| 2026-05-07 15:30 | 25.79671 | -80.03190 | 9544 ft | 290 kts | 50° |
| 2026-05-07 15:30 | 25.81007 | -80.01496 | 10247 ft | 293 kts | 50° |
| 2026-05-07 15:31 | 25.82404 | -79.99721 | 10353 ft | 319 kts | 50° |
| 2026-05-07 15:31 | 25.83922 | -79.97790 | 10359 ft | 343 kts | 50° |
| 2026-05-07 15:31 | 25.85524 | -79.95758 | 10478 ft | 354 kts | 50° |
| 2026-05-07 15:31 | 25.87156 | -79.93685 | 11018 ft | 357 kts | 49° |
| 2026-05-07 15:32 | 25.88800 | -79.91596 | 11576 ft | 360 kts | 49° |
| 2026-05-07 15:32 | 25.90434 | -79.89519 | 12133 ft | 363 kts | 49° |
| 2026-05-07 15:32 | 25.92106 | -79.87390 | 12684 ft | 367 kts | 49° |
| 2026-05-07 15:32 | 25.93790 | -79.85242 | 13213 ft | 371 kts | 49° |
| 2026-05-07 15:33 | 25.95492 | -79.83074 | 13771 ft | 374 kts | 49° |
| 2026-05-07 15:33 | 25.97215 | -79.80882 | 14257 ft | 378 kts | 48° |
| 2026-05-07 15:33 | 25.98956 | -79.78669 | 14748 ft | 381 kts | 48° |
| 2026-05-07 15:33 | 26.00706 | -79.76440 | 15258 ft | 383 kts | 48° |
| 2026-05-07 15:34 | 26.02444 | -79.74219 | 15751 ft | 386 kts | 48° |
| 2026-05-07 15:34 | 26.04222 | -79.71945 | 16238 ft | 389 kts | 47° |
| 2026-05-07 15:34 | 26.06006 | -79.69663 | 16738 ft | 392 kts | 47° |
| 2026-05-07 15:34 | 26.07805 | -79.67361 | 17220 ft | 396 kts | 47° |
| 2026-05-07 15:35 | 26.09618 | -79.65040 | 17722 ft | 399 kts | 47° |
| 2026-05-07 15:35 | 26.11333 | -79.62632 | 18212 ft | 403 kts | 52° |
| 2026-05-07 15:35 | 26.12959 | -79.60064 | 18665 ft | 407 kts | 52° |
| 2026-05-07 15:35 | 26.14599 | -79.57479 | 19090 ft | 410 kts | 52° |
| 2026-05-07 15:36 | 26.16250 | -79.54878 | 19519 ft | 413 kts | 52° |
| 2026-05-07 15:36 | 26.17913 | -79.52255 | 19945 ft | 417 kts | 52° |
| 2026-05-07 15:36 | 26.19592 | -79.49606 | 20350 ft | 421 kts | 52° |
| 2026-05-07 15:36 | 26.21291 | -79.46928 | 20741 ft | 425 kts | 52° |
| 2026-05-07 15:37 | 26.23004 | -79.44232 | 21127 ft | 428 kts | 51° |
| 2026-05-07 15:37 | 26.24735 | -79.41503 | 21521 ft | 431 kts | 51° |
| 2026-05-07 15:37 | 26.26469 | -79.38765 | 21917 ft | 434 kts | 51° |
| 2026-05-07 15:37 | 26.28209 | -79.36002 | 22291 ft | 437 kts | 53° |
| 2026-05-07 15:38 | 26.29702 | -79.33009 | 22650 ft | 444 kts | 62° |
| 2026-05-07 15:38 | 26.30974 | -79.29900 | 23006 ft | 447 kts | 62° |
| 2026-05-07 15:38 | 26.32274 | -79.26730 | 23360 ft | 450 kts | 62° |
| 2026-05-07 15:38 | 26.33583 | -79.23543 | 23693 ft | 453 kts | 62° |
| 2026-05-07 15:39 | 26.34900 | -79.20339 | 23983 ft | 455 kts | 62° |
| 2026-05-07 15:39 | 26.36222 | -79.17117 | 24277 ft | 458 kts | 62° |
| 2026-05-07 15:39 | 26.37552 | -79.13878 | 24573 ft | 460 kts | 62° |
| 2026-05-07 15:39 | 26.38887 | -79.10627 | 24869 ft | 462 kts | 62° |
| 2026-05-07 15:40 | 26.40228 | -79.07358 | 25165 ft | 464 kts | 62° |
| 2026-05-07 15:40 | 26.41571 | -79.04079 | 25462 ft | 466 kts | 62° |
| 2026-05-07 15:40 | 26.42919 | -79.00780 | 25771 ft | 468 kts | 62° |
| 2026-05-07 15:40 | 26.44272 | -78.97469 | 26059 ft | 470 kts | 62° |
| 2026-05-07 15:41 | 26.45634 | -78.94138 | 26307 ft | 473 kts | 62° |
| 2026-05-07 15:41 | 26.46983 | -78.90836 | 26571 ft | 475 kts | 62° |
| 2026-05-07 15:41 | 26.48357 | -78.87463 | 26848 ft | 478 kts | 62° |
| 2026-05-07 15:41 | 26.49735 | -78.84071 | 27121 ft | 480 kts | 62° |
| 2026-05-07 15:42 | 26.51120 | -78.80659 | 27394 ft | 482 kts | 62° |
| 2026-05-07 15:42 | 26.52506 | -78.77246 | 27658 ft | 484 kts | 62° |
| 2026-05-07 15:42 | 26.53885 | -78.73856 | 27933 ft | 486 kts | 62° |
| 2026-05-07 15:42 | 26.55168 | -78.70294 | 28192 ft | 491 kts | 69° |
| 2026-05-07 15:43 | 26.55955 | -78.66615 | 28442 ft | 497 kts | 78° |
| 2026-05-07 15:43 | 26.56441 | -78.62775 | 28711 ft | 499 kts | 79° |
| 2026-05-07 15:43 | 26.56924 | -78.58930 | 28969 ft | 501 kts | 79° |
| 2026-05-07 15:43 | 26.57411 | -78.55066 | 29217 ft | 503 kts | 79° |
| 2026-05-07 15:44 | 26.57904 | -78.51183 | 29463 ft | 505 kts | 79° |
| 2026-05-07 15:44 | 26.58404 | -78.47284 | 29754 ft | 505 kts | 79° |
| 2026-05-07 15:44 | 26.58900 | -78.43396 | 30123 ft | 504 kts | 79° |
| 2026-05-07 15:44 | 26.59387 | -78.39561 | 30430 ft | 504 kts | 79° |
| 2026-05-07 15:45 | 26.59879 | -78.35680 | 30735 ft | 503 kts | 79° |
| 2026-05-07 15:45 | 26.60368 | -78.31804 | 31053 ft | 502 kts | 79° |
| 2026-05-07 15:45 | 26.60852 | -78.27929 | 31385 ft | 501 kts | 79° |
| 2026-05-07 15:45 | 26.61334 | -78.24060 | 31720 ft | 500 kts | 79° |
| 2026-05-07 15:46 | 26.62283 | -78.16416 | 32392 ft | 498 kts | 79° |
| 2026-05-07 15:46 | 26.62759 | -78.12578 | 32740 ft | 497 kts | 79° |
| 2026-05-07 15:46 | 26.63236 | -78.08742 | 33094 ft | 497 kts | 79° |
| 2026-05-07 15:47 | 26.63709 | -78.04924 | 33453 ft | 496 kts | 79° |
| 2026-05-07 15:47 | 26.64182 | -78.01096 | 33818 ft | 495 kts | 80° |
| 2026-05-07 15:47 | 26.64651 | -77.97287 | 34176 ft | 494 kts | 80° |
| 2026-05-07 15:47 | 26.65119 | -77.93485 | 34499 ft | 493 kts | 79° |
| 2026-05-07 15:48 | 26.65584 | -77.89694 | 34837 ft | 492 kts | 79° |
| 2026-05-07 15:48 | 26.66049 | -77.85903 | 35122 ft | 492 kts | 79° |
| 2026-05-07 15:48 | 26.66506 | -77.82169 | 35408 ft | 491 kts | 79° |
| 2026-05-07 15:48 | 26.66968 | -77.78382 | 35704 ft | 490 kts | 79° |
| 2026-05-07 15:49 | 26.67429 | -77.74607 | 36000 ft | 489 kts | 79° |
| 2026-05-07 15:49 | 26.67888 | -77.70827 | 36292 ft | 489 kts | 79° |
| 2026-05-07 15:49 | 26.68346 | -77.67063 | 36577 ft | 488 kts | 79° |
| 2026-05-07 15:49 | 26.68800 | -77.63313 | 36855 ft | 487 kts | 79° |
| 2026-05-07 15:50 | 26.69252 | -77.59557 | 37063 ft | 487 kts | 79° |
| 2026-05-07 15:50 | 26.70142 | -77.52102 | 37107 ft | 485 kts | 79° |
| 2026-05-07 15:51 | 26.71033 | -77.44614 | 37107 ft | 485 kts | 79° |
| 2026-05-07 15:51 | 26.71924 | -77.37129 | 37110 ft | 485 kts | 79° |
| 2026-05-07 15:52 | 26.72810 | -77.29630 | 37107 ft | 485 kts | 79° |
| 2026-05-07 15:52 | 26.73681 | -77.22289 | 37111 ft | 486 kts | 79° |
| 2026-05-07 15:53 | 26.74561 | -77.14826 | 37110 ft | 486 kts | 79° |
| 2026-05-07 15:53 | 26.75442 | -77.07309 | 37108 ft | 486 kts | 79° |
| 2026-05-07 15:54 | 26.76317 | -76.99849 | 37107 ft | 486 kts | 79° |
| 2026-05-07 15:54 | 26.77177 | -76.92348 | 37111 ft | 486 kts | 79° |
| 2026-05-07 15:55 | 26.78036 | -76.84852 | 37111 ft | 486 kts | 79° |
| 2026-05-07 15:55 | 26.78899 | -76.77350 | 37112 ft | 486 kts | 79° |
| 2026-05-07 15:56 | 26.79759 | -76.69837 | 37110 ft | 486 kts | 79° |
| 2026-05-07 15:56 | 26.80613 | -76.62325 | 37117 ft | 486 kts | 79° |
| 2026-05-07 15:57 | 26.81641 | -76.54917 | 37120 ft | 482 kts | 71° |
| 2026-05-07 15:57 | 26.84267 | -76.48110 | 37125 ft | 471 kts | 52° |
| 2026-05-07 15:58 | 26.87944 | -76.42096 | 37090 ft | 471 kts | 50° |
| 2026-05-07 15:58 | 26.91660 | -76.36032 | 37090 ft | 473 kts | 51° |
| 2026-05-07 15:59 | 26.95374 | -76.29935 | 37097 ft | 474 kts | 51° |
| 2026-05-07 15:59 | 26.99085 | -76.23827 | 37108 ft | 474 kts | 51° |
| 2026-05-07 16:00 | 27.02810 | -76.17717 | 37107 ft | 475 kts | 51° |
| 2026-05-07 16:00 | 27.06544 | -76.11595 | 37113 ft | 475 kts | 51° |
| 2026-05-07 16:01 | 27.10236 | -76.05497 | 37122 ft | 475 kts | 51° |
| 2026-05-07 16:01 | 27.13952 | -75.99358 | 37128 ft | 475 kts | 51° |
| 2026-05-07 16:02 | 27.17671 | -75.93222 | 37121 ft | 475 kts | 51° |
| 2026-05-07 16:02 | 27.21387 | -75.87083 | 37122 ft | 475 kts | 51° |
| 2026-05-07 16:03 | 27.25090 | -75.80961 | 37119 ft | 475 kts | 51° |
| 2026-05-07 16:03 | 27.28791 | -75.74807 | 37119 ft | 474 kts | 50° |
| 2026-05-07 16:04 | 27.31861 | -75.69699 | 37130 ft | 474 kts | 50° |
| 2026-05-07 16:04 | 27.35566 | -75.63553 | 37133 ft | 473 kts | 50° |
| 2026-05-07 16:05 | 27.39255 | -75.57411 | 37123 ft | 473 kts | 50° |
| 2026-05-07 16:05 | 27.42944 | -75.51259 | 37124 ft | 473 kts | 50° |
| 2026-05-07 16:06 | 27.46609 | -75.45144 | 37116 ft | 473 kts | 50° |
| 2026-05-07 16:06 | 27.50293 | -75.38984 | 37118 ft | 472 kts | 50° |
| 2026-05-07 16:07 | 27.53938 | -75.32878 | 37122 ft | 471 kts | 50° |
| 2026-05-07 16:07 | 27.57596 | -75.26745 | 37128 ft | 471 kts | 50° |
| 2026-05-07 16:08 | 27.61256 | -75.20611 | 37113 ft | 471 kts | 50° |
| 2026-05-07 16:08 | 27.64911 | -75.14461 | 37106 ft | 471 kts | 50° |
| 2026-05-07 16:09 | 27.68531 | -75.08355 | 37099 ft | 471 kts | 50° |
| 2026-05-07 16:09 | 27.72176 | -75.02210 | 37097 ft | 470 kts | 50° |
| 2026-05-07 16:10 | 27.75813 | -74.96075 | 37102 ft | 470 kts | 50° |
| 2026-05-07 16:10 | 27.79453 | -74.89922 | 37101 ft | 470 kts | 50° |
| 2026-05-07 16:11 | 27.83067 | -74.83796 | 37110 ft | 471 kts | 50° |
| 2026-05-07 16:11 | 27.86688 | -74.77623 | 37105 ft | 471 kts | 51° |
| 2026-05-07 16:12 | 27.90295 | -74.71426 | 37104 ft | 471 kts | 51° |
| 2026-05-07 16:12 | 27.93911 | -74.65224 | 37104 ft | 472 kts | 51° |
| 2026-05-07 16:13 | 27.97508 | -74.59051 | 37103 ft | 472 kts | 51° |
| 2026-05-07 16:13 | 28.01121 | -74.52809 | 37105 ft | 472 kts | 51° |
| 2026-05-07 16:14 | 28.04708 | -74.46618 | 37109 ft | 472 kts | 51° |
| 2026-05-07 16:14 | 28.08320 | -74.40384 | 37119 ft | 473 kts | 51° |
| 2026-05-07 16:15 | 28.11930 | -74.34142 | 37117 ft | 473 kts | 51° |
| 2026-05-07 16:15 | 28.15518 | -74.27944 | 37124 ft | 472 kts | 51° |
| 2026-05-07 16:16 | 28.19119 | -74.21698 | 37122 ft | 472 kts | 51° |
| 2026-05-07 16:16 | 28.22702 | -74.15455 | 37120 ft | 471 kts | 51° |
| 2026-05-07 16:17 | 28.26260 | -74.09273 | 37120 ft | 471 kts | 51° |
| 2026-05-07 16:17 | 28.29843 | -74.03042 | 37131 ft | 470 kts | 51° |
| 2026-05-07 16:18 | 28.33424 | -73.96792 | 37118 ft | 471 kts | 51° |
| 2026-05-07 16:18 | 28.36973 | -73.90592 | 37114 ft | 471 kts | 51° |
| 2026-05-07 16:19 | 28.40538 | -73.84351 | 37113 ft | 470 kts | 51° |
| 2026-05-07 16:19 | 28.44078 | -73.78146 | 37110 ft | 470 kts | 51° |
| 2026-05-07 16:20 | 28.47637 | -73.71900 | 37106 ft | 470 kts | 51° |
| 2026-05-07 16:20 | 28.51196 | -73.65645 | 37105 ft | 471 kts | 51° |
| 2026-05-07 16:21 | 28.54760 | -73.59377 | 37127 ft | 470 kts | 51° |
| 2026-05-07 16:21 | 28.58296 | -73.53155 | 37113 ft | 470 kts | 51° |
| 2026-05-07 16:22 | 28.61857 | -73.46872 | 37103 ft | 471 kts | 51° |
| 2026-05-07 16:22 | 28.65381 | -73.40629 | 37100 ft | 471 kts | 51° |
| 2026-05-07 16:23 | 28.68933 | -73.34329 | 37099 ft | 471 kts | 51° |
| 2026-05-07 16:23 | 28.72465 | -73.28070 | 37104 ft | 471 kts | 51° |
| 2026-05-07 16:24 | 28.76010 | -73.21787 | 37112 ft | 471 kts | 51° |
| 2026-05-07 16:24 | 28.79520 | -73.15544 | 37119 ft | 471 kts | 51° |
| 2026-05-07 16:25 | 28.83052 | -73.09252 | 37113 ft | 471 kts | 51° |
| 2026-05-07 16:25 | 28.86572 | -73.02960 | 37111 ft | 471 kts | 52° |
| 2026-05-07 16:26 | 28.90104 | -72.96642 | 37112 ft | 471 kts | 51° |
| 2026-05-07 16:26 | 28.93618 | -72.90372 | 37114 ft | 471 kts | 51° |
| 2026-05-07 16:27 | 28.97148 | -72.84054 | 37115 ft | 470 kts | 52° |
| 2026-05-07 16:27 | 29.00646 | -72.77774 | 37128 ft | 470 kts | 52° |
| 2026-05-07 16:28 | 29.04169 | -72.71450 | 37120 ft | 471 kts | 52° |
| 2026-05-07 16:28 | 29.07661 | -72.65157 | 37115 ft | 471 kts | 52° |
| 2026-05-07 16:29 | 29.11179 | -72.58817 | 37117 ft | 471 kts | 52° |
| 2026-05-07 16:29 | 29.14670 | -72.52513 | 37111 ft | 471 kts | 52° |
| 2026-05-07 16:30 | 29.18190 | -72.46157 | 37104 ft | 472 kts | 52° |
| 2026-05-07 16:30 | 29.21690 | -72.39792 | 37112 ft | 472 kts | 52° |
| 2026-05-07 16:31 | 29.25172 | -72.33469 | 37112 ft | 472 kts | 52° |
| 2026-05-07 16:31 | 29.28683 | -72.27088 | 37109 ft | 473 kts | 52° |
| 2026-05-07 16:32 | 29.32192 | -72.20706 | 37110 ft | 473 kts | 52° |
| 2026-05-07 16:32 | 29.35702 | -72.14320 | 37108 ft | 473 kts | 52° |
| 2026-05-07 16:33 | 29.39194 | -72.07964 | 37108 ft | 473 kts | 52° |
| 2026-05-07 16:33 | 29.42698 | -72.01545 | 37109 ft | 473 kts | 52° |
| 2026-05-07 16:34 | 29.46181 | -71.95159 | 37108 ft | 474 kts | 52° |
| 2026-05-07 16:34 | 29.49684 | -71.88739 | 37118 ft | 474 kts | 53° |
| 2026-05-07 16:35 | 29.53165 | -71.82348 | 37121 ft | 474 kts | 53° |
| 2026-05-07 16:35 | 29.56666 | -71.75912 | 37125 ft | 474 kts | 53° |
| 2026-05-07 16:36 | 29.60161 | -71.69474 | 37124 ft | 473 kts | 53° |
| 2026-05-07 16:36 | 29.63627 | -71.63089 | 37122 ft | 473 kts | 53° |
| 2026-05-07 16:37 | 29.67113 | -71.56647 | 37127 ft | 473 kts | 52° |
| 2026-05-07 16:37 | 29.70571 | -71.50241 | 37127 ft | 473 kts | 53° |
| 2026-05-07 16:38 | 29.74039 | -71.43797 | 37119 ft | 473 kts | 53° |
| 2026-05-07 16:38 | 29.77517 | -71.37332 | 37116 ft | 474 kts | 53° |
| 2026-05-07 16:39 | 29.80989 | -71.30884 | 37117 ft | 474 kts | 53° |
| 2026-05-07 16:39 | 29.84440 | -71.24471 | 37116 ft | 474 kts | 53° |
| 2026-05-07 16:40 | 29.87906 | -71.18000 | 37128 ft | 474 kts | 53° |
| 2026-05-07 16:40 | 29.91364 | -71.11518 | 37119 ft | 475 kts | 53° |
| 2026-05-07 16:41 | 29.94809 | -71.05063 | 37119 ft | 475 kts | 53° |
| 2026-05-07 16:41 | 29.98288 | -70.98560 | 37128 ft | 475 kts | 53° |
| 2026-05-07 16:42 | 30.01736 | -70.92091 | 37124 ft | 476 kts | 53° |
| 2026-05-07 16:42 | 30.05194 | -70.85572 | 37129 ft | 476 kts | 53° |
| 2026-05-07 16:43 | 30.08657 | -70.79041 | 37149 ft | 475 kts | 53° |
| 2026-05-07 16:43 | 30.12092 | -70.72553 | 37131 ft | 476 kts | 53° |
| 2026-05-07 16:44 | 30.15561 | -70.66008 | 37125 ft | 476 kts | 53° |
| 2026-05-07 16:44 | 30.19003 | -70.59509 | 37124 ft | 476 kts | 53° |
| 2026-05-07 16:45 | 30.22450 | -70.52967 | 37125 ft | 476 kts | 53° |
| 2026-05-07 16:45 | 30.25896 | -70.46404 | 37130 ft | 476 kts | 53° |
| 2026-05-07 16:46 | 30.29316 | -70.39886 | 37145 ft | 476 kts | 53° |
| 2026-05-07 16:46 | 30.32751 | -70.33328 | 37138 ft | 476 kts | 53° |
| 2026-05-07 16:47 | 30.36192 | -70.26761 | 37134 ft | 477 kts | 53° |
| 2026-05-07 16:47 | 30.39642 | -70.20178 | 37131 ft | 477 kts | 53° |
| 2026-05-07 16:48 | 30.43054 | -70.13639 | 37140 ft | 477 kts | 53° |
| 2026-05-07 16:48 | 30.46485 | -70.07051 | 37139 ft | 476 kts | 53° |
| 2026-05-07 16:49 | 30.49340 | -70.01567 | 37134 ft | 476 kts | 53° |
| 2026-05-07 16:49 | 30.53320 | -69.93924 | 37136 ft | 476 kts | 53° |
| 2026-05-07 16:50 | 30.56167 | -69.88434 | 37135 ft | 476 kts | 53° |
| 2026-05-07 16:50 | 30.59586 | -69.81831 | 37137 ft | 477 kts | 53° |
| 2026-05-07 16:51 | 30.63004 | -69.75210 | 37137 ft | 476 kts | 53° |
| 2026-05-07 16:51 | 30.66390 | -69.68644 | 37136 ft | 476 kts | 53° |
| 2026-05-07 16:52 | 30.69798 | -69.62022 | 37159 ft | 476 kts | 53° |
| 2026-05-07 16:52 | 30.73196 | -69.55413 | 37145 ft | 476 kts | 53° |
| 2026-05-07 16:53 | 30.76576 | -69.48831 | 37137 ft | 476 kts | 53° |
| 2026-05-07 16:53 | 30.79973 | -69.42214 | 37134 ft | 475 kts | 53° |
| 2026-05-07 16:54 | 30.83359 | -69.35596 | 37138 ft | 475 kts | 53° |
| 2026-05-07 16:54 | 30.86740 | -69.28972 | 37131 ft | 475 kts | 53° |
| 2026-05-07 16:55 | 30.90098 | -69.22381 | 37150 ft | 475 kts | 53° |
| 2026-05-07 16:55 | 30.93471 | -69.15748 | 37135 ft | 475 kts | 53° |
| 2026-05-07 16:56 | 30.96811 | -69.09161 | 37145 ft | 474 kts | 53° |
| 2026-05-07 16:56 | 31.01856 | -68.99224 | 37136 ft | 473 kts | 53° |
| 2026-05-07 16:57 | 31.05211 | -68.92608 | 37130 ft | 473 kts | 53° |
| 2026-05-07 16:57 | 31.08534 | -68.86029 | 37134 ft | 473 kts | 53° |
| 2026-05-07 16:58 | 31.11879 | -68.79401 | 37139 ft | 473 kts | 53° |
| 2026-05-07 16:58 | 31.15215 | -68.72788 | 37135 ft | 473 kts | 53° |
| 2026-05-07 16:59 | 31.18541 | -68.66151 | 37133 ft | 474 kts | 53° |
| 2026-05-07 16:59 | 31.21872 | -68.59509 | 37133 ft | 474 kts | 53° |
| 2026-05-07 17:00 | 31.25201 | -68.52859 | 37136 ft | 474 kts | 53° |
| 2026-05-07 17:00 | 31.28523 | -68.46207 | 37156 ft | 473 kts | 53° |
| 2026-05-07 17:01 | 31.31841 | -68.39559 | 37148 ft | 473 kts | 53° |
| 2026-05-07 17:01 | 31.35140 | -68.32950 | 37141 ft | 474 kts | 53° |
| 2026-05-07 17:02 | 31.38456 | -68.26285 | 37135 ft | 474 kts | 53° |
| 2026-05-07 17:02 | 31.41768 | -68.19609 | 37145 ft | 474 kts | 53° |
| 2026-05-07 17:03 | 31.45078 | -68.12931 | 37143 ft | 474 kts | 53° |
| 2026-05-07 17:03 | 31.48296 | -68.06175 | 37145 ft | 479 kts | 59° |
| 2026-05-07 17:04 | 31.50479 | -67.98700 | 37146 ft | 485 kts | 66° |
| 2026-05-07 17:04 | 31.52533 | -67.91170 | 37146 ft | 485 kts | 66° |
| 2026-05-07 17:05 | 31.54580 | -67.83676 | 37146 ft | 485 kts | 66° |
| 2026-05-07 17:05 | 31.56619 | -67.76113 | 37149 ft | 485 kts | 66° |
| 2026-05-07 17:06 | 31.58640 | -67.68615 | 37147 ft | 485 kts | 66° |
| 2026-05-07 17:06 | 31.60672 | -67.61059 | 37150 ft | 485 kts | 66° |
| 2026-05-07 17:07 | 31.62703 | -67.53494 | 37163 ft | 485 kts | 66° |
| 2026-05-07 17:07 | 31.64732 | -67.45933 | 37163 ft | 485 kts | 66° |
| 2026-05-07 17:08 | 31.66755 | -67.38365 | 37166 ft | 485 kts | 66° |
| 2026-05-07 17:08 | 31.68775 | -67.30794 | 37161 ft | 485 kts | 66° |
| 2026-05-07 17:09 | 31.70768 | -67.23268 | 37158 ft | 485 kts | 66° |
| 2026-05-07 17:09 | 31.72784 | -67.15680 | 37166 ft | 485 kts | 66° |
| 2026-05-07 17:10 | 31.74789 | -67.08107 | 37161 ft | 484 kts | 66° |
| 2026-05-07 17:10 | 31.76771 | -67.00590 | 37161 ft | 484 kts | 66° |
| 2026-05-07 17:11 | 31.78761 | -66.93014 | 37168 ft | 484 kts | 66° |
| 2026-05-07 17:11 | 31.80747 | -66.85457 | 37171 ft | 484 kts | 65° |
| 2026-05-07 17:12 | 31.82719 | -66.77902 | 37163 ft | 483 kts | 66° |
| 2026-05-07 17:12 | 31.84690 | -66.70344 | 37160 ft | 483 kts | 66° |
| 2026-05-07 17:13 | 31.86653 | -66.62795 | 37157 ft | 483 kts | 66° |
| 2026-05-07 17:13 | 31.88614 | -66.55239 | 37159 ft | 483 kts | 65° |
| 2026-05-07 17:14 | 31.90241 | -66.48962 | 37163 ft | 482 kts | 65° |
| 2026-05-07 17:14 | 31.91521 | -66.44011 | 37163 ft | 482 kts | 65° |
| 2026-05-07 17:15 | 31.93465 | -66.36464 | 36898 ft | 482 kts | 66° |
| 2026-05-07 17:15 | 31.94426 | -66.32738 | 36647 ft | 482 kts | 66° |
| 2026-05-07 17:15 | 31.95400 | -66.28951 | 35983 ft | 486 kts | 66° |
| 2026-05-07 17:16 | 31.96387 | -66.25119 | 35127 ft | 493 kts | 67° |
| 2026-05-07 17:16 | 31.97386 | -66.21235 | 34251 ft | 498 kts | 68° |
| 2026-05-07 17:16 | 31.98392 | -66.17305 | 33181 ft | 505 kts | 69° |
| 2026-05-07 17:16 | 31.99403 | -66.13337 | 32187 ft | 509 kts | 70° |
| 2026-05-07 17:17 | 32.00419 | -66.09332 | 31380 ft | 509 kts | 70° |
| 2026-05-07 17:17 | 32.01432 | -66.05339 | 30512 ft | 510 kts | 71° |
| 2026-05-07 17:17 | 32.02449 | -66.01328 | 29432 ft | 512 kts | 72° |
| 2026-05-07 17:17 | 32.03468 | -65.97292 | 28285 ft | 515 kts | 72° |
| 2026-05-07 17:18 | 32.04490 | -65.93242 | 27277 ft | 514 kts | 72° |
| 2026-05-07 17:18 | 32.05508 | -65.89217 | 26376 ft | 511 kts | 72° |
| 2026-05-07 17:18 | 32.06517 | -65.85225 | 25575 ft | 506 kts | 72° |
| 2026-05-07 17:18 | 32.07518 | -65.81270 | 24806 ft | 501 kts | 72° |
| 2026-05-07 17:19 | 32.08508 | -65.77358 | 24042 ft | 496 kts | 72° |
| 2026-05-07 17:19 | 32.09488 | -65.73484 | 23215 ft | 490 kts | 73° |
| 2026-05-07 17:19 | 32.10454 | -65.69651 | 22379 ft | 484 kts | 73° |
| 2026-05-07 17:19 | 32.11404 | -65.65863 | 21583 ft | 479 kts | 73° |
| 2026-05-07 17:20 | 32.12143 | -65.62062 | 20818 ft | 473 kts | 82° |
| 2026-05-07 17:20 | 32.12529 | -65.58259 | 19820 ft | 462 kts | 83° |
| 2026-05-07 17:20 | 32.12886 | -65.54563 | 19203 ft | 443 kts | 83° |
| 2026-05-07 17:20 | 32.13226 | -65.51017 | 18625 ft | 428 kts | 83° |
| 2026-05-07 17:21 | 32.13556 | -65.47589 | 18011 ft | 414 kts | 83° |
| 2026-05-07 17:21 | 32.13883 | -65.44234 | 17454 ft | 410 kts | 83° |
| 2026-05-07 17:21 | 32.14203 | -65.40955 | 16901 ft | 405 kts | 83° |
| 2026-05-07 17:21 | 32.14523 | -65.37672 | 16336 ft | 401 kts | 83° |
| 2026-05-07 17:22 | 32.14837 | -65.34420 | 15763 ft | 398 kts | 83° |
| 2026-05-07 17:22 | 32.15147 | -65.31186 | 15111 ft | 396 kts | 83° |
| 2026-05-07 17:22 | 32.15457 | -65.27954 | 14449 ft | 396 kts | 83° |
| 2026-05-07 17:22 | 32.15767 | -65.24733 | 13832 ft | 394 kts | 83° |
| 2026-05-07 17:23 | 32.16074 | -65.21531 | 13164 ft | 391 kts | 83° |
| 2026-05-07 17:23 | 32.16376 | -65.18364 | 12541 ft | 387 kts | 83° |
| 2026-05-07 17:23 | 32.16673 | -65.15224 | 11925 ft | 383 kts | 83° |
| 2026-05-07 17:23 | 32.16966 | -65.12115 | 11306 ft | 380 kts | 83° |
| 2026-05-07 17:24 | 32.17256 | -65.09039 | 10806 ft | 370 kts | 83° |
| 2026-05-07 17:24 | 32.17530 | -65.06127 | 10683 ft | 343 kts | 83° |
| 2026-05-07 17:24 | 32.17786 | -65.03425 | 10533 ft | 322 kts | 83° |
| 2026-05-07 17:24 | 32.18028 | -65.00843 | 10154 ft | 315 kts | 82° |
| 2026-05-07 17:25 | 32.18266 | -64.98299 | 9985 ft | 309 kts | 82° |
| 2026-05-07 17:25 | 32.18501 | -64.95787 | 9843 ft | 307 kts | 82° |
| 2026-05-07 17:25 | 32.18734 | -64.93291 | 9714 ft | 306 kts | 82° |
| 2026-05-07 17:25 | 32.18967 | -64.90799 | 9585 ft | 305 kts | 82° |
| 2026-05-07 17:26 | 32.19200 | -64.88313 | 9333 ft | 306 kts | 82° |
| 2026-05-07 17:26 | 32.19434 | -64.85811 | 8896 ft | 306 kts | 83° |
| 2026-05-07 17:26 | 32.19664 | -64.83330 | 8508 ft | 305 kts | 83° |
| 2026-05-07 17:26 | 32.19893 | -64.80843 | 8180 ft | 302 kts | 83° |
| 2026-05-07 17:27 | 32.20120 | -64.78395 | 7896 ft | 297 kts | 83° |
| 2026-05-07 17:27 | 32.20342 | -64.75979 | 7491 ft | 296 kts | 83° |
| 2026-05-07 17:27 | 32.20562 | -64.73568 | 7066 ft | 294 kts | 83° |
| 2026-05-07 17:27 | 32.20781 | -64.71177 | 6550 ft | 291 kts | 83° |
| 2026-05-07 17:28 | 32.20997 | -64.68811 | 5985 ft | 289 kts | 83° |
| 2026-05-07 17:28 | 32.21211 | -64.66467 | 5436 ft | 285 kts | 83° |
| 2026-05-07 17:28 | 32.21421 | -64.64150 | 4899 ft | 282 kts | 84° |
| 2026-05-07 17:28 | 32.21628 | -64.61860 | 4335 ft | 279 kts | 84° |
| 2026-05-07 17:29 | 32.21833 | -64.59596 | 3823 ft | 276 kts | 84° |
| 2026-05-07 17:29 | 32.22035 | -64.57371 | 3499 ft | 274 kts | 84° |
| 2026-05-07 17:29 | 32.22234 | -64.55166 | 3344 ft | 266 kts | 84° |
| 2026-05-07 17:29 | 32.22426 | -64.53035 | 3225 ft | 256 kts | 84° |
| 2026-05-07 17:30 | 32.22637 | -64.51006 | 3104 ft | 241 kts | 78° |
| 2026-05-07 17:30 | 32.23350 | -64.49279 | 3012 ft | 232 kts | 49° |
| 2026-05-07 17:30 | 32.24621 | -64.48165 | 2877 ft | 227 kts | 21° |
| 2026-05-07 17:30 | 32.26143 | -64.47720 | 2749 ft | 225 kts | 10° |
| 2026-05-07 17:31 | 32.27675 | -64.47361 | 2619 ft | 224 kts | 10° |
| 2026-05-07 17:31 | 32.29200 | -64.46999 | 2489 ft | 223 kts | 10° |
| 2026-05-07 17:31 | 32.30726 | -64.46679 | 2355 ft | 222 kts | 2° |
| 2026-05-07 17:31 | 32.32173 | -64.47144 | 2230 ft | 217 kts | 323° |
| 2026-05-07 17:32 | 32.33052 | -64.48534 | 2109 ft | 213 kts | 286° |
| 2026-05-07 17:32 | 32.33365 | -64.50247 | 1989 ft | 213 kts | 280° |
| 2026-05-07 17:32 | 32.33656 | -64.51968 | 1870 ft | 213 kts | 281° |
| 2026-05-07 17:32 | 32.33852 | -64.53105 | 1795 ft | 213 kts | 281° |
| 2026-05-07 17:33 | 32.34250 | -64.55401 | 1643 ft | 213 kts | 281° |
| 2026-05-07 17:33 | 32.34546 | -64.57112 | 1528 ft | 213 kts | 280° |
| 2026-05-07 17:33 | 32.34840 | -64.58811 | 1294 ft | 208 kts | 281° |
| 2026-05-07 17:33 | 32.35121 | -64.60434 | 1045 ft | 194 kts | 281° |
| 2026-05-07 17:34 | 32.35380 | -64.61933 | 804 ft | 180 kts | 280° |
| 2026-05-07 17:34 | 32.35622 | -64.63323 | 581 ft | 165 kts | 279° |
| 2026-05-07 17:34 | 32.35841 | -64.64580 | 384 ft | 146 kts | 279° |
| 2026-05-07 17:34 | 32.36039 | -64.65717 | 163 ft | 138 kts | 278° |
| 2026-05-07 17:35 | 32.36215 | -64.66789 | 32 ft | 127 kts | 280° |
| 2026-05-07 17:35 | 32.36364 | -64.67649 | 27 ft | 83 kts | 281° |
| 2026-05-07 17:35 | 32.36456 | -64.68169 | 28 ft | 60 kts | 281° |
| 2026-05-07 17:35 | 32.36540 | -64.68666 | 28 ft | 58 kts | 281° |
| 2026-05-07 17:36 | 32.36604 | -64.69030 | 31 ft | 31 kts | 281° |
| 2026-05-07 17:36 | 32.36601 | -64.69209 | 26 ft | 21 kts | 250° |
| 2026-05-07 17:36 | 32.36541 | -64.69383 | 30 ft | 24 kts | 247° |
| 2026-05-07 17:36 | 32.36472 | -64.69577 | 27 ft | 27 kts | 248° |
| 2026-05-07 17:37 | 32.36394 | -64.69798 | 25 ft | 31 kts | 247° |
| 2026-05-07 17:37 | 32.36323 | -64.69996 | 24 ft | 23 kts | 246° |
| 2026-05-07 17:37 | 32.36268 | -64.70151 | 25 ft | 12 kts | 249° |
| 2026-05-07 17:37 | 32.36303 | -64.70208 | 24 ft | 9 kts | 333° |
| 2026-05-07 17:38 | 32.36329 | -64.70231 | 25 ft | 6 kts | 299° |
| 2026-05-07 17:38 | 32.36312 | -64.70292 | 26 ft | 10 kts | 248° |
| 2026-05-07 17:38 | 32.36295 | -64.70340 | 25 ft | 1 kts | 248° |